Terminal Aerodrome Forecast
Issued by NWS Twin Cities, MN

Home | Current Version | Previous Version | Text Only | Print | Product List | Glossary Off
Versions: 1 2 3 4 5 6 7 8 9 10 11 12 13 14 15 16 17 18 19 20 21 22 23 24

669
FTUS43 KMPX 222052 AAA
TAFMSP
TAF AMD
KMSP 222052Z 2221/2324 18011KT P6SM OVC080
     FM230400 17005KT P6SM SCT090
     FM230800 VRB03KT P6SM SKC
     FM231800 20006KT P6SM FEW250=

USA.gov is the U.S. government's official web portal to all federal, state and local government web resources and services.